Terminal Aerodrome Forecast
Issued by NWS Denver/Boulder, CO

Home | Current Version | Previous Version | Text Only | Print | Product List | Glossary On
Versions: 1 2 3 4 5 6 7 8 9 10 11 12 13 14 15 16 17 18 19 20 21 22 23 24 25 26 27 28 29 30 31 32 33 34 35 36 37 38 39 40 41 42 43 44 45 46 47 48 49 50
000
FTUS45 KBOU 230457 AAC
TAFDEN
TAF AMD
KDEN 230457Z 2305/2406 32013KT P6SM FEW090 SCT150 BKN220
     FM230800 23008KT P6SM SCT150 BKN220
     FM231000 34011KT P6SM FEW080 SCT140 BKN220
     FM231400 02010G16KT P6SM FEW070 SCT140
     FM231700 06008KT P6SM SCT070 SCT220
     FM232000 03013KT P6SM BKN060 BKN220=

USA.gov is the U.S. government's official web portal to all federal, state and local government web resources and services.